Time;durP1;ratioP1;P1;durP2;ratioP2;P2;SDS_P1;SDS_P2;PMS_P1;PMS_P2;Temp;Humidity;BMP_temperature;BMP_pressure;BME280_temperature;BME280_humidity;BME280_pressure;Samples;Min_cycle;Max_cycle;Signal;HPM_P1;HPM_P2
2022/09/30 00:01:19;;;;;;;1.07;0.70;;;9.50;99.90;;;;;;5008711;28;21012;-53
2022/09/30 00:03:47;;;;;;;1.23;0.63;;;9.50;99.90;;;;;;5008552;28;20963;-52
2022/09/30 00:06:14;;;;;;;2.13;0.80;;;9.40;99.90;;;;;;5008766;28;20503;-53
2022/09/30 00:08:42;;;;;;;1.93;0.80;;;9.40;99.90;;;;;;5008502;28;20490;-53
2022/09/30 00:11:15;;;;;;;1.77;0.63;;;9.40;99.90;;;;;;5008302;28;20443;-54
2022/09/30 00:13:42;;;;;;;3.73;0.83;;;9.40;99.90;;;;;;5008488;28;20444;-50
2022/09/30 00:16:10;;;;;;;0.90;0.50;;;9.40;99.90;;;;;;5008574;28;20987;-52
2022/09/30 00:18:38;;;;;;;1.20;0.67;;;9.40;99.90;;;;;;5008649;28;20461;-54
2022/09/30 00:21:06;;;;;;;1.00;0.50;;;9.40;99.90;;;;;;5009126;28;20521;-52
2022/09/30 00:23:33;;;;;;;1.70;0.50;;;9.30;99.90;;;;;;5008046;28;20440;-52
2022/09/30 00:26:04;;;;;;;1.53;0.70;;;9.20;99.90;;;;;;5008592;28;20534;-52
2022/09/30 00:28:30;;;;;;;1.00;0.50;;;9.30;99.90;;;;;;5008561;28;20475;-52
2022/09/30 00:30:59;;;;;;;1.80;1.00;;;9.50;99.90;;;;;;5008439;28;20464;-52
2022/09/30 00:33:26;;;;;;;1.73;0.60;;;9.50;99.90;;;;;;5008003;28;20950;-52
2022/09/30 00:35:53;;;;;;;0.90;0.50;;;9.50;99.90;;;;;;5008315;28;20447;-53
2022/09/30 00:38:20;;;;;;;1.00;0.70;;;9.60;99.90;;;;;;5007749;28;20443;-53
2022/09/30 00:40:48;;;;;;;1.40;1.00;;;9.60;99.90;;;;;;5007662;28;20474;-53
2022/09/30 00:43:20;;;;;;;1.50;1.10;;;9.60;99.90;;;;;;5007813;28;20454;-52
2022/09/30 00:45:51;;;;;;;2.23;0.90;;;9.70;99.90;;;;;;5008298;28;20439;-52
2022/09/30 00:48:20;;;;;;;1.43;1.00;;;9.60;99.90;;;;;;5007610;28;20475;-53
2022/09/30 00:50:54;;;;;;;1.40;0.80;;;9.60;99.90;;;;;;5007982;28;20497;-53
2022/09/30 00:53:28;;;;;;;2.20;0.80;;;9.60;99.90;;;;;;5007618;28;20955;-52
2022/09/30 00:55:59;;;;;;;1.77;0.80;;;9.60;99.90;;;;;;5007788;28;20450;-52
2022/09/30 00:58:34;;;;;;;1.93;0.87;;;9.60;99.90;;;;;;5007915;28;20533;-52
2022/09/30 01:01:01;;;;;;;2.40;0.70;;;9.60;99.90;;;;;;5007980;28;20466;-52
2022/09/30 01:03:31;;;;;;;1.17;0.77;;;9.60;99.90;;;;;;5007514;28;20448;-52
2022/09/30 01:05:59;;;;;;;1.33;0.80;;;9.60;99.90;;;;;;5007967;28;20463;-52
2022/09/30 01:08:27;;;;;;;1.20;1.00;;;9.50;99.90;;;;;;5007934;28;20479;-52
2022/09/30 01:10:54;;;;;;;1.20;1.00;;;9.40;99.90;;;;;;5007646;28;20459;-52
2022/09/30 01:13:26;;;;;;;1.20;0.90;;;9.30;99.90;;;;;;5007495;28;20537;-52
2022/09/30 01:16:23;;;;;;;1.77;0.90;;;9.20;99.90;;;;;;5007806;28;20580;-52
2022/09/30 01:19:02;;;;;;;1.30;0.83;;;9.30;99.90;;;;;;5007769;28;20440;-53
2022/09/30 01:21:59;;;;;;;1.07;0.73;;;9.40;99.90;;;;;;5008639;28;20542;-54
2022/09/30 01:24:56;;;;;;;1.03;0.67;;;9.50;99.90;;;;;;5010759;28;20956;-52
2022/09/30 01:28:07;;;;;;;1.00;0.60;;;9.50;99.90;;;;;;5010972;28;20963;-51
2022/09/30 01:30:55;;;;;;;0.90;0.50;;;9.40;99.90;;;;;;5012242;28;20478;-54
2022/09/30 01:33:35;;;;;;;1.83;0.70;;;9.40;99.90;;;;;;5010737;28;20454;-53
2022/09/30 01:36:16;;;;;;;1.20;0.70;;;9.40;99.90;;;;;;5010930;28;20442;-52
2022/09/30 01:38:51;;;;;;;1.13;0.60;;;9.50;99.90;;;;;;5010701;28;20439;-52
2022/09/30 01:41:34;;;;;;;1.83;0.60;;;9.50;99.90;;;;;;5010145;28;20453;-52
2022/09/30 01:44:08;;;;;;;1.33;1.07;;;9.40;99.90;;;;;;5010375;28;20439;-52
2022/09/30 01:46:43;;;;;;;1.80;0.83;;;9.50;99.90;;;;;;5010746;28;20450;-52
2022/09/30 01:49:14;;;;;;;2.90;0.87;;;9.50;99.90;;;;;;5011834;28;20483;-50
2022/09/30 01:51:47;;;;;;;1.20;0.90;;;9.50;99.90;;;;;;5010724;28;20444;-50
2022/09/30 01:54:20;;;;;;;1.70;1.00;;;9.30;99.90;;;;;;5010820;28;20439;-51
2022/09/30 01:56:51;;;;;;;1.60;0.90;;;8.60;99.90;;;;;;5010722;28;20526;-51
2022/09/30 01:59:23;;;;;;;1.63;1.23;;;8.30;99.90;;;;;;5010477;28;20981;-51
2022/09/30 02:01:55;;;;;;;1.20;0.93;;;8.30;99.90;;;;;;5010629;28;20444;-51
2022/09/30 02:04:27;;;;;;;2.13;1.10;;;8.60;99.90;;;;;;5010329;28;20797;-51
2022/09/30 02:06:59;;;;;;;1.57;1.10;;;8.80;99.90;;;;;;5010357;28;20792;-50
2022/09/30 02:09:28;;;;;;;1.80;1.17;;;9.00;99.90;;;;;;5010504;28;20493;-51
2022/09/30 02:11:59;;;;;;;1.67;1.50;;;9.10;99.90;;;;;;5010684;28;20449;-51
2022/09/30 02:14:31;;;;;;;1.23;1.10;;;9.30;99.90;;;;;;5010370;28;20443;-51
2022/09/30 02:17:03;;;;;;;1.20;1.10;;;9.30;99.90;;;;;;5010228;28;20481;-50
2022/09/30 02:19:35;;;;;;;1.40;1.17;;;9.30;99.90;;;;;;5010250;28;20459;-50
2022/09/30 02:22:07;;;;;;;1.73;1.40;;;9.10;99.90;;;;;;5010608;28;20547;-50
2022/09/30 02:24:36;;;;;;;1.10;0.87;;;9.00;99.90;;;;;;5010307;28;20516;-50
2022/09/30 02:27:08;;;;;;;1.30;1.03;;;9.10;99.90;;;;;;5010199;28;20455;-50
2022/09/30 02:29:39;;;;;;;1.10;0.80;;;9.10;99.90;;;;;;5009956;28;20545;-51
2022/09/30 02:32:13;;;;;;;1.63;0.80;;;9.20;99.90;;;;;;5009535;28;20446;-50
2022/09/30 02:34:44;;;;;;;0.90;0.60;;;9.20;99.90;;;;;;5009397;28;20444;-50
2022/09/30 02:37:17;;;;;;;1.00;0.70;;;9.30;99.90;;;;;;5010200;28;20872;-51
2022/09/30 02:39:50;;;;;;;2.33;0.90;;;9.40;99.90;;;;;;5010109;28;20548;-51
2022/09/30 02:42:20;;;;;;;1.73;0.70;;;9.40;99.90;;;;;;5010061;28;20820;-51
2022/09/30 02:44:48;;;;;;;1.10;0.90;;;9.40;99.90;;;;;;5009769;28;20448;-50
2022/09/30 02:47:25;;;;;;;1.33;1.00;;;9.40;99.90;;;;;;5009799;28;20818;-50
2022/09/30 02:49:58;;;;;;;1.90;1.20;;;9.40;99.90;;;;;;5009460;28;20483;-50
2022/09/30 02:52:29;;;;;;;1.20;0.70;;;9.40;99.90;;;;;;5009742;28;20487;-50
2022/09/30 02:55:10;;;;;;;1.40;0.80;;;9.50;99.90;;;;;;5009680;28;20469;-50
2022/09/30 02:57:42;;;;;;;1.23;0.80;;;9.50;99.90;;;;;;5009847;28;20446;-51
2022/09/30 03:00:10;;;;;;;1.40;1.13;;;9.60;99.90;;;;;;5009657;28;20468;-50
2022/09/30 03:02:38;;;;;;;2.63;1.17;;;9.50;99.90;;;;;;5009538;28;20519;-51
2022/09/30 03:05:06;;;;;;;1.23;0.97;;;9.40;99.90;;;;;;5009291;28;20454;-50
2022/09/30 03:07:34;;;;;;;2.17;0.90;;;9.30;99.90;;;;;;5009762;28;20456;-50
2022/09/30 03:10:01;;;;;;;1.30;0.80;;;9.10;99.90;;;;;;5009298;28;20494;-51
2022/09/30 03:12:38;;;;;;;1.50;1.00;;;9.10;99.90;;;;;;5009633;28;20448;-51
2022/09/30 03:15:30;;;;;;;1.60;1.10;;;9.20;99.90;;;;;;5009092;28;20445;-50
2022/09/30 03:18:11;;;;;;;1.87;1.10;;;9.30;99.90;;;;;;5009545;28;20528;-50
2022/09/30 03:20:46;;;;;;;2.83;1.20;;;9.00;99.90;;;;;;5009296;28;20459;-51
2022/09/30 03:23:35;;;;;;;1.93;1.13;;;8.70;99.90;;;;;;5009156;28;20960;-50
2022/09/30 03:26:14;;;;;;;2.50;1.10;;;9.00;99.90;;;;;;5009546;28;20451;-51
2022/09/30 03:28:51;;;;;;;1.30;1.20;;;8.90;99.90;;;;;;5008979;28;20475;-50
2022/09/30 03:31:24;;;;;;;2.30;1.10;;;9.00;99.90;;;;;;5009167;28;20458;-50
2022/09/30 03:34:10;;;;;;;1.43;1.20;;;9.10;99.90;;;;;;5009004;28;20479;-51
2022/09/30 03:36:42;;;;;;;2.10;1.17;;;9.20;99.90;;;;;;5009260;28;20930;-51
2022/09/30 03:39:17;;;;;;;1.40;1.13;;;9.30;99.90;;;;;;5008556;28;20463;-50
2022/09/30 03:41:52;;;;;;;1.90;1.20;;;9.40;99.90;;;;;;5008644;28;20450;-51
2022/09/30 03:44:25;;;;;;;1.40;1.27;;;9.40;99.90;;;;;;5008464;28;20469;-51
2022/09/30 03:46:56;;;;;;;1.60;1.30;;;9.50;99.90;;;;;;5009134;28;20447;-51
2022/09/30 03:49:28;;;;;;;1.30;1.00;;;9.50;99.90;;;;;;5008843;28;20600;-50
2022/09/30 03:51:56;;;;;;;1.20;0.83;;;9.50;99.90;;;;;;5008707;28;20447;-51
2022/09/30 03:54:23;;;;;;;1.20;0.97;;;9.50;99.90;;;;;;5008630;28;20448;-52
2022/09/30 03:56:50;;;;;;;1.60;1.10;;;9.50;99.90;;;;;;5008886;28;20443;-51
2022/09/30 03:59:23;;;;;;;1.33;0.90;;;9.50;99.90;;;;;;5008768;28;21060;-51
2022/09/30 04:01:49;;;;;;;1.57;0.97;;;9.60;99.90;;;;;;5008548;28;20447;-51
2022/09/30 04:04:16;;;;;;;2.10;1.10;;;9.60;99.90;;;;;;5008282;28;20536;-51
2022/09/30 04:06:45;;;;;;;2.10;1.90;;;9.60;99.90;;;;;;5008831;28;20530;-50
2022/09/30 04:09:12;;;;;;;2.53;2.00;;;9.50;99.90;;;;;;5008398;28;20494;-51
2022/09/30 04:11:39;;;;;;;2.23;1.47;;;9.60;99.90;;;;;;5008627;28;20454;-50
2022/09/30 04:14:06;;;;;;;1.83;1.63;;;9.60;99.90;;;;;;5008238;28;20447;-50
2022/09/30 04:16:34;;;;;;;2.50;2.00;;;9.60;99.90;;;;;;5008508;28;20531;-51
2022/09/30 04:19:01;;;;;;;1.93;1.60;;;9.60;99.90;;;;;;5008299;28;20688;-50
2022/09/30 04:21:28;;;;;;;1.90;1.70;;;9.60;99.90;;;;;;5008173;28;20531;-51
2022/09/30 04:23:56;;;;;;;2.33;1.70;;;9.60;99.90;;;;;;5008280;28;20443;-51
2022/09/30 04:26:24;;;;;;;2.20;1.70;;;9.60;99.90;;;;;;5008476;28;20828;-51
2022/09/30 04:28:52;;;;;;;2.27;1.30;;;9.70;99.90;;;;;;5008368;28;20564;-51
2022/09/30 04:31:19;;;;;;;2.50;1.40;;;9.70;99.90;;;;;;5007979;28;20444;-50
2022/09/30 04:33:46;;;;;;;1.60;1.30;;;9.60;99.90;;;;;;5007957;28;20484;-51
2022/09/30 04:36:13;;;;;;;1.20;1.00;;;9.60;99.90;;;;;;5008124;28;20483;-51
2022/09/30 04:38:39;;;;;;;1.63;1.23;;;9.60;99.90;;;;;;5007861;28;20451;-50
2022/09/30 04:41:08;;;;;;;1.30;1.00;;;9.50;99.90;;;;;;5007555;28;20447;-51
2022/09/30 04:43:35;;;;;;;2.13;1.33;;;9.50;99.90;;;;;;5008219;28;20443;-49
2022/09/30 04:46:02;;;;;;;1.93;1.57;;;9.50;99.90;;;;;;5008115;28;20447;-49
2022/09/30 04:48:30;;;;;;;2.60;2.00;;;9.50;99.90;;;;;;5007729;28;20534;-51
2022/09/30 04:50:58;;;;;;;2.20;1.60;;;9.50;99.90;;;;;;5007734;28;21178;-50
2022/09/30 04:53:25;;;;;;;2.30;1.50;;;9.10;99.90;;;;;;5007710;28;21052;-49
2022/09/30 04:55:57;;;;;;;2.17;1.90;;;8.90;99.90;;;;;;5007118;28;20448;-51
2022/09/30 04:58:26;;;;;;;2.20;1.97;;;9.00;99.90;;;;;;5008002;28;20492;-50
2022/09/30 05:00:59;;;;;;;2.20;2.00;;;9.10;99.90;;;;;;5007778;28;20462;-50
2022/09/30 05:03:26;;;;;;;2.20;1.80;;;9.20;99.90;;;;;;5007555;28;20454;-51
2022/09/30 05:05:53;;;;;;;2.40;2.20;;;9.30;99.90;;;;;;5008001;28;20462;-50
2022/09/30 05:08:20;;;;;;;15.83;3.43;;;9.40;99.90;;;;;;5007783;28;20449;-51
2022/09/30 05:10:53;;;;;;;5.90;2.53;;;9.40;99.90;;;;;;5007707;28;20472;-50
2022/09/30 05:13:20;;;;;;;3.47;2.00;;;9.40;99.90;;;;;;5007386;28;20817;-51
2022/09/30 05:15:50;;;;;;;3.43;1.70;;;9.40;99.90;;;;;;5007643;28;20535;-51
2022/09/30 05:18:17;;;;;;;1.73;1.50;;;9.40;99.90;;;;;;5007981;28;20452;-50
2022/09/30 05:20:44;;;;;;;2.13;1.30;;;9.50;99.90;;;;;;5007874;28;20481;-50
2022/09/30 05:23:10;;;;;;;3.60;1.50;;;9.60;99.90;;;;;;5007518;28;20484;-50
2022/09/30 05:25:37;;;;;;;1.80;1.53;;;9.60;99.90;;;;;;5007480;28;20486;-50
2022/09/30 05:28:04;;;;;;;2.07;1.60;;;9.60;99.90;;;;;;5007497;28;20448;-50
2022/09/30 05:30:31;;;;;;;2.90;2.23;;;9.50;99.90;;;;;;5007613;28;20921;-51
2022/09/30 05:32:59;;;;;;;3.00;2.43;;;9.50;99.90;;;;;;5007237;28;20556;-51
2022/09/30 05:35:26;;;;;;;3.37;3.07;;;9.40;99.90;;;;;;5007368;28;20440;-50
2022/09/30 05:37:53;;;;;;;4.47;3.60;;;9.40;99.90;;;;;;5007169;28;20443;-50
2022/09/30 05:40:20;;;;;;;4.43;2.97;;;9.30;99.90;;;;;;5007288;28;20552;-50
2022/09/30 05:42:47;;;;;;;3.73;3.43;;;9.40;99.90;;;;;;5007384;28;20443;-51
2022/09/30 05:45:13;;;;;;;3.33;3.03;;;9.40;99.90;;;;;;5007399;28;20571;-51
2022/09/30 05:47:41;;;;;;;4.90;4.20;;;9.40;99.90;;;;;;5007726;28;20466;-50
2022/09/30 05:50:09;;;;;;;4.60;4.17;;;9.40;99.90;;;;;;5006851;28;20574;-50
2022/09/30 05:52:36;;;;;;;4.57;4.17;;;9.40;99.90;;;;;;5006954;28;21185;-50
2022/09/30 05:55:03;;;;;;;4.53;4.13;;;9.40;99.90;;;;;;5007140;28;20893;-50
2022/09/30 05:57:30;;;;;;;6.20;5.00;;;9.50;99.90;;;;;;5007337;28;20444;-50
2022/09/30 05:59:57;;;;;;;4.47;4.07;;;9.50;99.90;;;;;;5007302;28;20550;-50
2022/09/30 06:02:24;;;;;;;4.90;4.40;;;9.50;99.90;;;;;;5007090;28;20450;-51
2022/09/30 06:04:51;;;;;;;4.20;3.90;;;9.60;99.90;;;;;;5006813;28;20444;-50
2022/09/30 06:07:19;;;;;;;5.03;4.27;;;9.60;99.90;;;;;;5007947;28;20471;-50
2022/09/30 06:09:47;;;;;;;5.60;3.70;;;9.60;99.90;;;;;;5010449;28;20566;-50
2022/09/30 06:12:14;;;;;;;6.20;4.70;;;9.50;99.90;;;;;;5010384;28;20447;-51
2022/09/30 06:14:41;;;;;;;3.40;3.10;;;9.50;99.90;;;;;;5010411;28;20439;-51
2022/09/30 06:17:08;;;;;;;3.07;2.87;;;9.50;99.90;;;;;;5010648;28;20534;-50
2022/09/30 06:19:35;;;;;;;3.97;3.47;;;9.50;99.90;;;;;;5010325;28;20463;-50
2022/09/30 06:22:02;;;;;;;4.23;2.80;;;9.50;99.90;;;;;;5010772;28;20452;-50
2022/09/30 06:24:30;;;;;;;3.03;2.73;;;9.60;99.90;;;;;;5010311;28;20490;-50
2022/09/30 06:26:57;;;;;;;3.50;3.20;;;9.60;99.90;;;;;;5010739;28;20451;-50
2022/09/30 06:29:24;;;;;;;3.17;2.87;;;9.60;99.90;;;;;;5010050;28;20524;-50
2022/09/30 06:31:51;;;;;;;3.20;2.83;;;9.60;99.90;;;;;;5010043;28;20458;-50
2022/09/30 06:34:18;;;;;;;2.77;2.57;;;9.50;99.90;;;;;;5009793;28;21001;-51
2022/09/30 06:36:45;;;;;;;3.10;2.90;;;9.50;99.90;;;;;;5010426;28;20477;-50
2022/09/30 06:39:12;;;;;;;3.53;3.23;;;9.50;99.90;;;;;;5010279;28;20500;-50
2022/09/30 06:41:42;;;;;;;4.03;3.20;;;9.50;99.90;;;;;;5010084;28;20473;-50
2022/09/30 06:44:09;;;;;;;4.23;3.23;;;9.50;99.90;;;;;;5009704;28;20457;-50
2022/09/30 06:46:36;;;;;;;3.53;3.17;;;9.60;99.90;;;;;;5009602;28;20542;-50
2022/09/30 06:49:04;;;;;;;3.40;3.10;;;9.60;99.90;;;;;;5009882;28;20468;-50
2022/09/30 06:51:32;;;;;;;3.70;3.40;;;9.60;99.90;;;;;;5009853;28;20532;-51
2022/09/30 06:54:00;;;;;;;3.80;3.33;;;9.40;99.90;;;;;;5009923;28;20447;-51
2022/09/30 06:56:27;;;;;;;4.60;3.60;;;9.50;99.90;;;;;;5009830;28;20627;-50
2022/09/30 06:58:56;;;;;;;4.30;3.17;;;9.50;99.90;;;;;;5009826;28;20531;-50
2022/09/30 07:01:23;;;;;;;3.43;3.13;;;9.70;99.90;;;;;;5009694;28;20440;-50
2022/09/30 07:03:56;;;;;;;4.97;4.30;;;9.80;99.90;;;;;;5009622;28;20534;-50
2022/09/30 07:06:24;;;;;;;4.43;4.00;;;9.80;99.90;;;;;;5009739;28;20443;-50
2022/09/30 07:08:52;;;;;;;4.87;3.70;;;9.80;99.90;;;;;;5009770;28;20471;-50
2022/09/30 07:11:19;;;;;;;4.73;3.23;;;9.90;99.90;;;;;;5009469;28;20487;-49
2022/09/30 07:13:48;;;;;;;4.40;3.30;;;9.90;99.90;;;;;;5009391;28;20526;-50
2022/09/30 07:16:17;;;;;;;5.13;4.60;;;10.00;99.90;;;;;;5009513;28;20443;-50
2022/09/30 07:18:45;;;;;;;3.93;3.63;;;9.40;99.90;;;;;;5008672;28;20530;-51
2022/09/30 07:21:14;;;;;;;3.30;3.10;;;9.60;99.90;;;;;;5009356;28;20488;-50
2022/09/30 07:23:44;;;;;;;28.83;5.63;;;9.70;99.90;;;;;;5008946;28;20805;-50
2022/09/30 07:26:11;;;;;;;3.20;2.30;;;9.70;99.90;;;;;;5009369;28;20500;-50
2022/09/30 07:28:39;;;;;;;5.23;2.97;;;9.40;99.90;;;;;;5009244;28;20454;-51
2022/09/30 07:31:10;;;;;;;2.87;2.50;;;9.30;99.90;;;;;;5009115;28;20491;-51
2022/09/30 07:33:40;;;;;;;4.17;3.40;;;9.30;99.90;;;;;;5009021;28;20544;-52
2022/09/30 07:36:07;;;;;;;3.63;3.33;;;9.50;99.90;;;;;;5008819;28;21060;-51
2022/09/30 07:38:36;;;;;;;3.90;3.10;;;9.80;99.90;;;;;;5009049;28;20451;-50
2022/09/30 07:41:06;;;;;;;3.20;2.70;;;9.80;99.90;;;;;;5008627;28;20491;-50
2022/09/30 07:43:37;;;;;;;3.70;3.20;;;9.80;99.90;;;;;;5008736;28;20956;-51
2022/09/30 07:46:07;;;;;;;2.30;2.10;;;9.90;99.90;;;;;;5008757;28;20884;-50
2022/09/30 07:48:42;;;;;;;2.13;1.93;;;9.80;99.90;;;;;;5008866;28;20443;-50
2022/09/30 07:51:11;;;;;;;2.33;1.90;;;9.90;99.90;;;;;;5010158;28;20536;-52
2022/09/30 07:53:39;;;;;;;1.57;1.47;;;9.90;99.90;;;;;;5008562;28;20504;-52
2022/09/30 07:56:07;;;;;;;2.20;1.93;;;9.80;99.90;;;;;;5008628;28;20450;-52
2022/09/30 07:58:35;;;;;;;3.00;1.97;;;9.90;99.90;;;;;;5008582;28;20448;-52
2022/09/30 08:01:02;;;;;;;3.17;1.60;;;10.00;99.90;;;;;;5008631;28;20464;-51
2022/09/30 08:03:28;;;;;;;2.77;2.20;;;10.10;99.90;;;;;;5008495;28;20444;-52
2022/09/30 08:05:55;;;;;;;3.40;3.10;;;10.00;99.90;;;;;;5008797;28;20527;-52
2022/09/30 08:08:23;;;;;;;4.63;3.30;;;9.70;99.90;;;;;;5008667;28;20945;-52
2022/09/30 08:10:50;;;;;;;4.63;3.60;;;9.60;99.90;;;;;;5008697;28;20490;-52
2022/09/30 08:13:18;;;;;;;3.43;3.17;;;9.50;99.90;;;;;;5008067;28;20530;-53
2022/09/30 08:15:45;;;;;;;3.70;3.40;;;9.60;99.90;;;;;;5008418;28;20444;-52
2022/09/30 08:18:12;;;;;;;3.60;2.63;;;9.50;99.90;;;;;;5008456;28;20985;-52
2022/09/30 08:20:39;;;;;;;3.17;2.87;;;9.70;99.90;;;;;;5008382;28;20460;-52
2022/09/30 08:23:06;;;;;;;2.77;2.57;;;9.80;99.90;;;;;;5008158;28;20826;-52
2022/09/30 08:25:34;;;;;;;2.47;2.20;;;9.60;99.90;;;;;;5008596;28;20440;-52
2022/09/30 08:28:01;;;;;;;3.90;3.17;;;9.60;99.90;;;;;;5007676;28;20444;-52
2022/09/30 08:30:28;;;;;;;2.60;2.40;;;9.80;99.90;;;;;;5005780;28;20574;-52
2022/09/30 08:32:55;;;;;;;3.60;2.17;;;9.90;99.90;;;;;;5007723;28;20443;-52
2022/09/30 08:35:22;;;;;;;3.63;2.50;;;10.10;99.90;;;;;;5008506;28;20487;-50
2022/09/30 08:37:50;;;;;;;3.27;2.50;;;10.20;99.90;;;;;;5007846;28;20450;-52
2022/09/30 08:40:24;;;;;;;2.13;1.73;;;10.30;99.90;;;;;;5006618;28;20943;-52
2022/09/30 08:43:07;;;;;;;3.20;2.30;;;10.40;99.90;;;;;;5008085;28;20443;-50
2022/09/30 08:45:42;;;;;;;3.33;2.03;;;10.40;99.90;;;;;;5008293;28;20458;-52
2022/09/30 08:48:23;;;;;;;3.10;1.60;;;10.50;99.90;;;;;;5006725;28;20543;-54
2022/09/30 08:51:02;;;;;;;2.53;1.50;;;10.50;99.90;;;;;;4990559;28;20495;-52
2022/09/30 08:53:33;;;;;;;2.40;1.50;;;10.60;99.90;;;;;;4986452;28;20448;-51
2022/09/30 08:56:01;;;;;;;1.57;1.47;;;10.50;99.90;;;;;;4987175;28;21087;-51
2022/09/30 08:58:31;;;;;;;4.10;2.07;;;10.60;99.90;;;;;;4987822;28;20454;-50
2022/09/30 09:01:05;;;;;;;1.50;1.40;;;10.60;99.90;;;;;;4987974;28;20473;-50
2022/09/30 09:03:34;;;;;;;3.20;1.97;;;10.60;99.90;;;;;;4987950;28;20441;-52
2022/09/30 09:06:16;;;;;;;1.90;1.60;;;10.60;99.90;;;;;;4988499;28;20448;-51
2022/09/30 09:09:00;;;;;;;2.03;1.70;;;10.70;99.90;;;;;;4988530;28;20448;-51
2022/09/30 09:11:42;;;;;;;2.03;1.83;;;10.70;99.90;;;;;;4986911;28;20485;-51
2022/09/30 09:14:25;;;;;;;2.10;1.90;;;10.60;99.90;;;;;;4986727;28;20448;-50
2022/09/30 09:17:03;;;;;;;2.90;2.10;;;10.30;99.90;;;;;;4986951;28;20587;-50
2022/09/30 09:19:37;;;;;;;3.33;2.00;;;10.50;99.90;;;;;;4986673;28;20478;-51
2022/09/30 09:22:04;;;;;;;2.50;2.27;;;10.50;99.90;;;;;;4986825;28;20445;-50
2022/09/30 09:24:38;;;;;;;3.63;1.80;;;10.60;99.90;;;;;;4986109;28;20460;-49
2022/09/30 09:27:18;;;;;;;2.60;2.30;;;10.50;99.90;;;;;;4988229;28;20490;-50
2022/09/30 09:29:58;;;;;;;3.27;2.27;;;10.30;99.90;;;;;;4987955;28;20470;-50
2022/09/30 09:32:28;;;;;;;2.90;2.13;;;10.40;99.90;;;;;;4988228;28;20445;-49
2022/09/30 09:34:59;;;;;;;3.90;2.30;;;10.40;99.90;;;;;;4988146;28;20449;-50
2022/09/30 09:40:29;;;;;;;2.27;1.80;;;10.50;99.90;;;;;;4987468;28;20808;-50
2022/09/30 09:43:08;;;;;;;4.13;1.67;;;10.60;99.90;;;;;;4989227;28;20450;-50
2022/09/30 09:45:42;;;;;;;2.40;1.83;;;10.70;99.90;;;;;;4991857;28;20448;-50
2022/09/30 09:48:12;;;;;;;2.40;1.87;;;10.70;99.90;;;;;;4996317;28;20451;-50
2022/09/30 09:50:48;;;;;;;1.70;1.60;;;10.80;99.90;;;;;;5010723;28;20496;-50
2022/09/30 09:53:33;;;;;;;2.60;1.60;;;10.90;99.90;;;;;;4992384;28;20451;-50
2022/09/30 09:56:02;;;;;;;2.20;1.60;;;10.90;99.90;;;;;;4991290;28;20536;-50
2022/09/30 09:58:28;;;;;;;4.33;1.73;;;11.00;99.90;;;;;;4991117;28;20452;-50
2022/09/30 10:01:27;;;;;;;4.60;2.27;;;11.00;99.90;;;;;;4991026;28;20547;-51
2022/09/30 10:04:13;;;;;;;2.70;1.40;;;10.90;99.90;;;;;;4990454;28;20456;-50
2022/09/30 10:06:49;;;;;;;3.20;1.67;;;11.00;99.90;;;;;;4990799;28;20458;-50
2022/09/30 10:09:24;;;;;;;4.50;1.67;;;11.00;99.90;;;;;;4990324;28;20973;-49
2022/09/30 10:11:51;;;;;;;4.30;1.80;;;11.00;99.90;;;;;;4990497;28;20475;-50
2022/09/30 10:14:21;;;;;;;3.33;2.30;;;11.00;99.90;;;;;;4990619;28;20445;-51
2022/09/30 10:16:50;;;;;;;2.60;1.70;;;11.00;99.90;;;;;;4990563;28;20530;-50
2022/09/30 10:19:22;;;;;;;2.43;1.93;;;10.90;99.90;;;;;;4989365;28;20556;-51
2022/09/30 10:21:49;;;;;;;2.03;1.60;;;11.00;99.90;;;;;;4989225;28;20440;-51
2022/09/30 10:24:26;;;;;;;2.23;1.60;;;11.00;99.90;;;;;;4989025;28;20535;-51
2022/09/30 10:26:53;;;;;;;3.60;1.90;;;11.00;99.90;;;;;;4989160;28;20805;-50
2022/09/30 10:29:27;;;;;;;2.20;1.97;;;11.00;99.90;;;;;;4988844;28;20549;-52
2022/09/30 10:31:56;;;;;;;1.77;1.63;;;11.10;99.90;;;;;;4988943;28;20516;-51
2022/09/30 10:34:28;;;;;;;1.93;1.80;;;11.20;99.90;;;;;;4991434;28;20521;-50
2022/09/30 10:36:57;;;;;;;1.63;1.40;;;11.20;99.90;;;;;;4997115;28;20452;-50
2022/09/30 10:39:27;;;;;;;2.30;1.43;;;11.30;99.90;;;;;;5000608;28;20464;-50
2022/09/30 10:42:02;;;;;;;2.30;1.60;;;11.30;99.90;;;;;;4994212;28;20480;-50
2022/09/30 10:44:29;;;;;;;2.80;1.73;;;11.40;99.90;;;;;;4995345;28;20436;-50
2022/09/30 10:47:02;;;;;;;2.00;1.67;;;11.40;99.90;;;;;;5007904;28;20481;-49
2022/09/30 10:49:35;;;;;;;2.57;1.80;;;11.50;99.90;;;;;;4995281;28;20572;-50
2022/09/30 10:52:03;;;;;;;1.83;1.30;;;11.50;99.90;;;;;;4988819;28;20472;-50
2022/09/30 10:54:50;;;;;;;1.57;1.10;;;11.50;99.90;;;;;;4987769;28;20445;-50
2022/09/30 10:57:21;;;;;;;1.50;1.30;;;11.50;99.90;;;;;;4989171;28;20446;-50
2022/09/30 10:59:48;;;;;;;1.70;1.20;;;11.50;99.90;;;;;;4988462;28;21021;-50
2022/09/30 11:02:29;;;;;;;2.80;1.40;;;11.50;99.90;;;;;;4988364;28;20969;-50
2022/09/30 11:05:06;;;;;;;2.23;1.50;;;11.60;99.90;;;;;;4988183;28;20515;-51
2022/09/30 11:07:40;;;;;;;2.10;1.40;;;11.60;99.90;;;;;;4988654;28;20450;-50
2022/09/30 11:10:14;;;;;;;2.00;1.50;;;11.60;99.90;;;;;;4988028;28;20518;-50
2022/09/30 11:12:45;;;;;;;3.50;1.70;;;11.60;99.90;;;;;;4988830;28;20477;-50
2022/09/30 11:15:19;;;;;;;1.97;1.57;;;11.60;99.90;;;;;;4989265;28;20479;-49
2022/09/30 11:17:53;;;;;;;1.50;1.40;;;11.70;99.90;;;;;;4988593;28;20450;-49
2022/09/30 11:20:24;;;;;;;1.90;1.73;;;11.80;99.90;;;;;;4989304;28;20458;-47
2022/09/30 11:22:56;;;;;;;2.63;2.20;;;11.70;99.90;;;;;;4989319;28;20532;-51
2022/09/30 11:25:32;;;;;;;1.70;1.40;;;11.60;99.90;;;;;;4989775;28;20524;-49
2022/09/30 11:28:19;;;;;;;2.67;2.00;;;11.60;99.90;;;;;;4989864;28;20449;-50
2022/09/30 11:30:55;;;;;;;2.63;2.00;;;11.70;99.90;;;;;;4989556;28;20676;-50
2022/09/30 11:33:41;;;;;;;1.90;1.67;;;11.70;99.90;;;;;;4989737;28;20462;-51
2022/09/30 11:36:15;;;;;;;1.90;1.70;;;11.70;99.90;;;;;;4989630;28;20470;-50
2022/09/30 11:39:18;;;;;;;3.57;1.90;;;11.70;99.90;;;;;;4988980;28;20443;-50
2022/09/30 11:41:51;;;;;;;1.60;1.50;;;11.80;99.90;;;;;;4989457;28;20445;-50
2022/09/30 11:44:28;;;;;;;2.47;1.63;;;11.70;99.90;;;;;;4989234;28;20449;-49
2022/09/30 11:47:16;;;;;;;2.60;1.77;;;11.80;99.90;;;;;;4989422;28;20448;-50
2022/09/30 11:50:04;;;;;;;2.50;2.30;;;11.90;99.90;;;;;;4989258;28;20571;-50
2022/09/30 11:52:39;;;;;;;2.57;2.00;;;12.00;99.90;;;;;;4989435;28;20494;-51
2022/09/30 11:55:26;;;;;;;1.70;1.60;;;12.00;99.90;;;;;;4989322;28;20452;-50
2022/09/30 11:58:00;;;;;;;1.93;1.77;;;12.10;99.90;;;;;;4989381;28;20935;-50
2022/09/30 12:00:30;;;;;;;2.07;1.90;;;12.10;99.90;;;;;;4988163;28;20471;-50
2022/09/30 12:03:04;;;;;;;6.37;2.10;;;12.10;99.90;;;;;;4987962;28;20445;-50
2022/09/30 12:05:38;;;;;;;2.23;1.67;;;12.10;99.90;;;;;;4987624;28;21051;-50
2022/09/30 12:08:14;;;;;;;1.50;1.37;;;12.10;99.90;;;;;;4987476;28;20568;-50
2022/09/30 12:10:45;;;;;;;3.10;2.10;;;12.20;99.90;;;;;;4987721;28;20654;-50
2022/09/30 12:13:16;;;;;;;2.67;2.30;;;12.40;99.90;;;;;;4987958;28;20473;-50
2022/09/30 12:15:46;;;;;;;5.57;2.30;;;12.50;99.90;;;;;;4988897;28;20440;-50
2022/09/30 12:18:17;;;;;;;2.17;1.77;;;12.60;99.90;;;;;;4988549;28;20529;-49
2022/09/30 12:20:50;;;;;;;2.20;1.77;;;12.60;99.90;;;;;;4988853;28;20503;-50
2022/09/30 12:23:21;;;;;;;1.90;1.77;;;12.60;99.90;;;;;;4988624;28;20466;-49
2022/09/30 12:25:52;;;;;;;2.03;1.83;;;12.60;99.90;;;;;;4988756;28;20937;-50
2022/09/30 12:31:42;;;;;;;2.97;1.93;;;12.80;99.90;;;;;;4988844;28;20469;-49
2022/09/30 12:34:24;;;;;;;2.00;1.63;;;12.90;99.90;;;;;;4988742;28;20476;-50
2022/09/30 12:37:16;;;;;;;1.90;1.70;;;12.90;99.90;;;;;;4989341;28;20522;-50
2022/09/30 12:40:00;;;;;;;2.73;1.73;;;12.80;99.90;;;;;;4989005;28;20458;-50
2022/09/30 12:42:54;;;;;;;2.07;1.87;;;12.70;99.90;;;;;;4988872;28;20547;-50
2022/09/30 12:45:53;;;;;;;2.57;1.90;;;12.70;99.90;;;;;;4988542;28;20449;-49
2022/09/30 12:48:24;;;;;;;1.60;1.50;;;12.60;99.90;;;;;;4988480;28;20455;-50
2022/09/30 12:50:53;;;;;;;2.30;1.43;;;12.80;99.90;;;;;;4987455;28;20565;-50
2022/09/30 12:53:26;;;;;;;2.43;2.00;;;12.80;99.90;;;;;;4988102;28;20446;-51
2022/09/30 12:55:54;;;;;;;3.77;2.20;;;12.80;99.90;;;;;;4989141;28;20455;-52
2022/09/30 12:58:24;;;;;;;2.03;1.63;;;12.80;99.90;;;;;;4988656;28;20448;-51
2022/09/30 13:01:04;;;;;;;1.83;1.53;;;12.70;99.90;;;;;;4988915;28;20478;-49
2022/09/30 13:03:45;;;;;;;1.90;1.70;;;12.80;99.90;;;;;;4987960;28;20450;-49
2022/09/30 13:06:15;;;;;;;2.07;1.40;;;12.80;99.90;;;;;;4988357;28;20461;-50
2022/09/30 13:09:05;;;;;;;1.90;1.60;;;12.80;99.90;;;;;;4988071;28;20484;-52
2022/09/30 13:11:35;;;;;;;4.87;1.70;;;12.90;99.90;;;;;;4988321;28;20478;-50
2022/09/30 13:14:17;;;;;;;2.70;1.40;;;12.90;99.90;;;;;;4988404;28;20823;-50
2022/09/30 13:17:22;;;;;;;1.70;1.53;;;12.90;99.90;;;;;;4988119;28;20506;-50
2022/09/30 13:19:51;;;;;;;1.20;1.00;;;12.90;99.90;;;;;;4976717;28;20553;-51
2022/09/30 13:22:57;;;;;;;2.70;1.90;;;12.80;99.90;;;;;;4991497;28;20958;-50
2022/09/30 13:25:26;;;;;;;1.67;1.20;;;12.70;99.90;;;;;;4991701;28;20843;-50